Time;durP1;ratioP1;P1;durP2;ratioP2;P2;SDS_P1;SDS_P2;PMS_P1;PMS_P2;Temp;Humidity;BMP_temperature;BMP_pressure;BME280_temperature;BME280_humidity;BME280_pressure;Samples;Min_cycle;Max_cycle;Signal;HPM_P1;HPM_P2
2022/07/23 00:01:21;;;;;;;135.25;123.63;;;17.30;93.90;;;;;;4993919;28;20150;-76
2022/07/23 00:03:48;;;;;;;134.48;122.93;;;17.30;93.90;;;;;;4994707;28;20113;-76
2022/07/23 00:06:15;;;;;;;135.75;124.25;;;17.30;93.90;;;;;;4993624;28;20058;-76
2022/07/23 00:08:44;;;;;;;136.15;124.35;;;17.20;93.80;;;;;;4994899;28;20077;-75
2022/07/23 00:11:11;;;;;;;135.57;124.18;;;17.20;93.70;;;;;;4994690;28;20058;-76
2022/07/23 00:13:38;;;;;;;134.70;123.35;;;17.20;93.60;;;;;;4994434;28;20133;-76
2022/07/23 00:16:05;;;;;;;133.95;122.40;;;17.20;93.70;;;;;;4994404;28;20126;-76
2022/07/23 00:18:32;;;;;;;132.57;121.18;;;17.20;93.70;;;;;;4992079;28;20046;-76
2022/07/23 00:20:59;;;;;;;132.77;121.32;;;17.10;93.60;;;;;;4994227;28;20090;-76
2022/07/23 00:23:27;;;;;;;133.68;122.18;;;17.10;93.70;;;;;;4992838;28;20053;-78
2022/07/23 00:25:55;;;;;;;133.73;122.32;;;17.10;93.70;;;;;;4993075;28;20477;-76
2022/07/23 00:28:22;;;;;;;133.55;122.15;;;17.10;93.60;;;;;;4992271;28;20050;-76
2022/07/23 00:30:49;;;;;;;131.88;120.50;;;17.00;93.50;;;;;;4994851;28;20107;-76
2022/07/23 00:33:16;;;;;;;132.88;121.57;;;17.00;93.50;;;;;;4993032;28;20219;-75
2022/07/23 00:35:43;;;;;;;133.05;121.65;;;17.00;93.60;;;;;;5010074;28;20118;-76
2022/07/23 00:38:11;;;;;;;135.23;123.57;;;17.00;93.70;;;;;;4992784;28;20575;-76
2022/07/23 00:40:39;;;;;;;135.55;123.65;;;17.00;93.80;;;;;;4993395;28;20047;-76
2022/07/23 00:43:07;;;;;;;134.45;122.85;;;16.90;93.60;;;;;;4993477;28;20070;-76
2022/07/23 00:45:34;;;;;;;131.48;120.28;;;16.90;93.60;;;;;;4994189;28;20090;-76
2022/07/23 00:48:02;;;;;;;131.18;119.85;;;16.90;93.60;;;;;;4993004;28;20171;-76
2022/07/23 00:50:29;;;;;;;134.70;123.35;;;16.90;93.60;;;;;;4976901;28;20134;-76
2022/07/23 00:52:57;;;;;;;133.38;121.90;;;16.80;93.50;;;;;;4993271;28;20133;-75
2022/07/23 00:55:23;;;;;;;132.02;120.72;;;16.80;93.60;;;;;;4994393;28;20053;-76
2022/07/23 00:57:52;;;;;;;131.70;120.38;;;16.80;93.60;;;;;;5009097;28;20150;-76
2022/07/23 01:00:21;;;;;;;134.23;121.90;;;16.80;93.60;;;;;;4993780;28;20058;-76
2022/07/23 01:02:48;;;;;;;131.18;119.97;;;16.70;93.60;;;;;;4976010;28;20513;-76
2022/07/23 01:05:15;;;;;;;130.27;119.13;;;16.70;93.70;;;;;;5008980;28;20051;-76
2022/07/23 01:07:43;;;;;;;131.70;120.20;;;16.70;93.60;;;;;;5007714;28;20054;-76
2022/07/23 01:12:51;;;;;;;132.68;121.18;;;16.60;93.60;;;;;;4991661;28;20061;-76
2022/07/23 01:15:20;;;;;;;131.68;120.28;;;16.60;93.50;;;;;;4992139;28;20072;-76
2022/07/23 01:17:46;;;;;;;131.55;120.25;;;16.60;93.50;;;;;;5008812;28;20371;-76
2022/07/23 01:20:13;;;;;;;130.70;119.20;;;16.50;93.40;;;;;;4992670;28;20114;-76
2022/07/23 01:22:42;;;;;;;132.02;120.72;;;16.50;93.40;;;;;;4976963;28;20521;-76
2022/07/23 01:25:09;;;;;;;132.02;120.53;;;16.50;93.30;;;;;;4992774;28;20073;-76
2022/07/23 01:27:38;;;;;;;133.25;121.65;;;16.50;93.40;;;;;;4975795;28;20489;-76
2022/07/23 01:30:06;;;;;;;131.77;120.47;;;16.50;93.50;;;;;;4976427;28;20054;-76
2022/07/23 01:32:33;;;;;;;131.98;120.57;;;16.40;93.60;;;;;;4976041;28;20564;-76
2022/07/23 01:35:00;;;;;;;132.90;121.35;;;16.40;93.60;;;;;;4976214;28;20086;-76
2022/07/23 01:37:27;;;;;;;129.40;117.85;;;16.40;93.60;;;;;;4991683;28;20050;-76
2022/07/23 01:39:57;;;;;;;131.73;119.88;;;16.30;93.70;;;;;;4992502;28;20058;-76
2022/07/23 01:42:26;;;;;;;131.27;119.97;;;16.30;93.70;;;;;;4975924;28;20043;-76
2022/07/23 01:44:52;;;;;;;129.68;118.47;;;16.30;93.70;;;;;;4976256;28;20085;-76
2022/07/23 01:47:21;;;;;;;133.50;119.95;;;16.30;93.60;;;;;;4991689;28;20057;-76
2022/07/23 01:49:52;;;;;;;130.68;118.55;;;16.30;93.70;;;;;;4992287;28;20888;-76
2022/07/23 01:52:37;;;;;;;130.48;118.82;;;16.20;93.70;;;;;;4991911;28;20058;-76
2022/07/23 01:55:07;;;;;;;129.82;118.53;;;16.20;93.70;;;;;;4975666;28;20509;-76
2022/07/23 01:57:35;;;;;;;129.60;118.30;;;16.20;93.70;;;;;;4991668;28;20047;-76
2022/07/23 02:00:03;;;;;;;127.90;116.70;;;16.20;93.70;;;;;;4976122;28;20057;-76
2022/07/23 02:02:39;;;;;;;129.02;117.65;;;16.10;93.70;;;;;;4991966;28;20050;-76
2022/07/23 02:05:07;;;;;;;130.13;118.82;;;16.10;93.60;;;;;;4975927;28;20054;-76
2022/07/23 02:07:35;;;;;;;130.57;119.10;;;16.10;93.60;;;;;;4992035;28;20062;-76
2022/07/23 02:10:02;;;;;;;131.98;120.38;;;16.00;93.50;;;;;;4975686;28;20049;-76
2022/07/23 02:12:30;;;;;;;132.65;120.13;;;16.00;93.40;;;;;;4992212;28;20053;-76
2022/07/23 02:14:57;;;;;;;131.80;119.93;;;16.00;93.60;;;;;;4975497;28;20130;-76
2022/07/23 02:17:25;;;;;;;132.15;120.60;;;16.00;93.60;;;;;;4991348;28;20054;-76
2022/07/23 02:19:52;;;;;;;131.23;119.63;;;16.00;93.60;;;;;;4976599;28;20049;-75
2022/07/23 02:22:19;;;;;;;128.65;117.45;;;15.90;93.60;;;;;;4995395;28;20134;-76
2022/07/23 02:24:49;;;;;;;126.20;115.10;;;15.90;93.70;;;;;;4994405;28;20054;-76
2022/07/23 02:27:16;;;;;;;127.40;116.30;;;15.90;93.80;;;;;;4995947;28;20050;-76
2022/07/23 02:29:45;;;;;;;127.28;116.07;;;15.90;94.00;;;;;;4995236;28;20050;-75
2022/07/23 02:32:14;;;;;;;127.03;115.80;;;15.80;93.90;;;;;;4995203;28;20078;-76
2022/07/23 02:34:41;;;;;;;128.32;117.05;;;15.80;93.90;;;;;;4994919;28;20162;-76
2022/07/23 02:37:09;;;;;;;134.63;123.13;;;15.70;93.80;;;;;;4978483;28;20502;-76
2022/07/23 02:39:37;;;;;;;130.63;118.95;;;15.70;93.70;;;;;;4994434;28;20138;-76
2022/07/23 02:42:04;;;;;;;130.13;118.63;;;15.70;93.80;;;;;;4994882;28;20489;-76
2022/07/23 02:44:34;;;;;;;129.52;117.82;;;15.70;93.70;;;;;;5010694;28;20055;-76
2022/07/23 02:47:03;;;;;;;130.52;118.82;;;15.70;93.80;;;;;;4994767;28;20089;-76
2022/07/23 02:49:30;;;;;;;128.23;116.82;;;15.70;93.80;;;;;;4996321;28;20062;-76
2022/07/23 02:51:58;;;;;;;127.68;116.30;;;15.60;93.70;;;;;;4994785;28;20075;-76
2022/07/23 02:54:25;;;;;;;131.05;119.22;;;15.60;93.70;;;;;;4994233;28;20513;-75
2022/07/23 02:56:53;;;;;;;131.38;119.68;;;15.60;93.80;;;;;;4994753;28;20106;-76
2022/07/23 02:59:20;;;;;;;131.10;119.20;;;15.60;93.70;;;;;;4994656;28;20059;-76
2022/07/23 03:01:48;;;;;;;130.82;119.20;;;15.60;93.70;;;;;;4993570;28;20054;-76
2022/07/23 03:04:16;;;;;;;130.25;118.35;;;15.50;93.60;;;;;;4994315;28;20584;-76
2022/07/23 03:06:43;;;;;;;131.70;120.05;;;15.50;93.60;;;;;;4994470;28;20768;-76
2022/07/23 03:09:10;;;;;;;134.98;123.50;;;15.50;93.60;;;;;;4994531;28;20050;-76
2022/07/23 03:11:39;;;;;;;129.43;117.82;;;15.40;93.50;;;;;;4977795;28;20081;-76
2022/07/23 03:14:07;;;;;;;127.60;116.18;;;15.40;93.40;;;;;;5010737;28;20061;-76
2022/07/23 03:16:35;;;;;;;128.00;116.22;;;15.40;93.40;;;;;;4993641;28;20054;-76
2022/07/23 03:19:02;;;;;;;127.13;115.82;;;15.40;93.40;;;;;;5010421;28;20054;-75
2022/07/23 03:21:31;;;;;;;129.00;117.70;;;15.30;93.50;;;;;;4994099;28;20106;-76
2022/07/23 03:23:57;;;;;;;130.75;118.43;;;15.30;93.30;;;;;;4977354;28;20046;-76
2022/07/23 03:26:25;;;;;;;127.15;115.95;;;15.30;93.50;;;;;;4993972;28;20059;-76
2022/07/23 03:28:53;;;;;;;126.65;115.38;;;15.20;93.60;;;;;;4976875;28;20047;-76
2022/07/23 03:31:20;;;;;;;126.82;115.55;;;15.20;93.60;;;;;;4994965;28;20085;-76
2022/07/23 03:33:47;;;;;;;127.60;116.10;;;15.20;93.60;;;;;;4977769;28;20125;-76
2022/07/23 03:36:14;;;;;;;125.82;114.32;;;15.10;93.60;;;;;;4977584;28;20922;-76
2022/07/23 03:38:44;;;;;;;127.15;115.55;;;15.10;93.60;;;;;;4977235;28;20553;-76
2022/07/23 03:41:11;;;;;;;126.40;114.90;;;15.10;93.60;;;;;;4994999;28;20058;-76
2022/07/23 03:43:38;;;;;;;125.93;114.60;;;15.10;93.60;;;;;;4993752;28;20428;-76
2022/07/23 03:46:05;;;;;;;125.82;114.53;;;15.00;93.50;;;;;;4993694;28;20054;-76
2022/07/23 03:48:32;;;;;;;127.38;115.68;;;15.00;93.40;;;;;;4992581;28;20074;-76
2022/07/23 03:50:59;;;;;;;127.28;115.68;;;15.00;93.50;;;;;;4977526;28;20118;-76
2022/07/23 03:53:26;;;;;;;128.65;116.82;;;15.00;93.60;;;;;;4976763;28;20075;-76
2022/07/23 03:55:55;;;;;;;129.00;117.40;;;15.00;93.70;;;;;;4977557;28;20802;-76
2022/07/23 03:58:23;;;;;;;130.45;116.88;;;14.90;93.60;;;;;;4977161;28;20549;-76
2022/07/23 04:00:50;;;;;;;151.45;117.38;;;14.90;93.60;;;;;;4977367;28;20125;-76
2022/07/23 04:03:16;;;;;;;145.05;116.10;;;14.90;93.60;;;;;;4976999;28;20046;-76
2022/07/23 04:05:44;;;;;;;128.40;117.00;;;14.80;93.60;;;;;;4976524;28;20055;-76
2022/07/23 04:08:14;;;;;;;126.75;115.35;;;14.80;93.50;;;;;;4976948;28;20050;-76
2022/07/23 04:10:44;;;;;;;127.78;116.28;;;14.80;93.50;;;;;;4977179;28;20142;-76
2022/07/23 04:13:13;;;;;;;127.75;116.35;;;14.70;93.50;;;;;;4977267;28;20043;-76
2022/07/23 04:15:40;;;;;;;130.05;118.40;;;14.70;93.50;;;;;;4978674;28;20053;-75
2022/07/23 04:18:08;;;;;;;128.10;116.60;;;14.70;93.50;;;;;;4980352;28;20188;-75
2022/07/23 04:20:49;;;;;;;129.20;117.40;;;14.70;93.70;;;;;;4991265;28;20058;-76
2022/07/23 04:23:27;;;;;;;129.73;117.93;;;14.60;94.00;;;;;;4999496;28;20189;-75
2022/07/23 04:25:57;;;;;;;129.48;117.80;;;14.60;94.20;;;;;;4977488;28;20587;-75
2022/07/23 04:28:27;;;;;;;128.68;117.18;;;14.60;94.40;;;;;;5010671;28;20046;-76
2022/07/23 04:30:57;;;;;;;127.85;116.25;;;14.60;94.50;;;;;;4979907;28;20038;-76
2022/07/23 04:33:24;;;;;;;127.07;115.32;;;14.50;94.40;;;;;;4975920;28;20053;-76
2022/07/23 04:35:54;;;;;;;127.60;115.95;;;14.50;94.40;;;;;;4975738;28;20452;-76
2022/07/23 04:38:21;;;;;;;129.32;117.43;;;14.50;94.40;;;;;;4975827;28;20051;-76
2022/07/23 04:40:50;;;;;;;126.95;115.32;;;14.50;94.60;;;;;;4975953;28;20055;-76
2022/07/23 04:43:17;;;;;;;129.55;117.75;;;14.50;94.80;;;;;;4991112;28;20477;-76
2022/07/23 04:45:51;;;;;;;129.20;117.18;;;14.50;95.00;;;;;;5008545;28;20047;-76
2022/07/23 04:48:18;;;;;;;130.73;118.78;;;14.50;95.10;;;;;;4976387;28;20130;-76
2022/07/23 04:50:45;;;;;;;126.63;114.82;;;14.50;95.10;;;;;;4976754;28;20133;-76
2022/07/23 04:53:19;;;;;;;129.05;116.88;;;14.50;95.20;;;;;;4992766;28;20055;-76
2022/07/23 04:55:47;;;;;;;128.65;116.85;;;14.50;95.20;;;;;;4976976;28;20055;-76
2022/07/23 04:58:14;;;;;;;129.13;117.15;;;14.50;95.50;;;;;;4992426;28;20047;-75
2022/07/23 05:00:41;;;;;;;127.05;115.22;;;14.50;95.80;;;;;;4992675;28;20528;-76
2022/07/23 05:03:09;;;;;;;125.43;113.80;;;14.40;96.10;;;;;;5008912;28;20055;-76
2022/07/23 05:05:36;;;;;;;128.95;117.13;;;14.40;96.20;;;;;;4975788;28;20495;-75
2022/07/23 05:08:10;;;;;;;128.90;116.88;;;14.40;96.20;;;;;;4992075;28;20054;-75
2022/07/23 05:10:39;;;;;;;125.82;114.22;;;14.40;96.40;;;;;;4992724;28;20043;-75
2022/07/23 05:13:06;;;;;;;130.63;118.35;;;14.40;96.50;;;;;;5009242;28;20145;-75
2022/07/23 05:15:33;;;;;;;132.43;119.95;;;14.40;96.60;;;;;;5009010;28;20125;-75
2022/07/23 05:18:00;;;;;;;130.07;117.97;;;14.40;96.70;;;;;;5008922;28;20527;-76
2022/07/23 05:20:30;;;;;;;129.95;117.72;;;14.40;96.80;;;;;;4992681;28;20198;-76
2022/07/23 05:22:57;;;;;;;129.30;117.35;;;14.40;96.90;;;;;;4992437;28;20134;-75
2022/07/23 05:25:24;;;;;;;127.57;115.70;;;14.40;97.00;;;;;;4992935;28;20459;-76
2022/07/23 05:27:51;;;;;;;129.27;117.05;;;14.50;97.00;;;;;;4992633;28;20082;-75
2022/07/23 05:30:18;;;;;;;128.52;116.43;;;14.50;97.00;;;;;;4976203;28;20422;-75
2022/07/23 05:32:47;;;;;;;128.82;116.43;;;14.50;97.10;;;;;;5008898;28;20061;-75
2022/07/23 05:35:17;;;;;;;130.48;118.00;;;14.50;97.00;;;;;;5008284;28;20508;-75
2022/07/23 05:37:56;;;;;;;128.93;116.93;;;14.50;97.10;;;;;;4992279;28;20051;-75
2022/07/23 05:40:23;;;;;;;129.55;117.25;;;14.60;97.30;;;;;;4975877;28;20109;-75
2022/07/23 05:42:50;;;;;;;130.88;118.57;;;14.60;97.30;;;;;;4992104;28;20127;-75
2022/07/23 05:45:17;;;;;;;130.77;118.47;;;14.60;97.30;;;;;;4992280;28;20141;-75
2022/07/23 05:47:47;;;;;;;132.07;119.43;;;14.60;97.20;;;;;;4991666;28;20047;-75
2022/07/23 05:50:20;;;;;;;128.93;116.82;;;14.70;97.30;;;;;;4972257;28;20174;-75
2022/07/23 05:52:53;;;;;;;129.38;117.40;;;14.70;97.30;;;;;;4990690;28;20047;-76
2022/07/23 05:55:36;;;;;;;130.35;118.00;;;14.70;97.40;;;;;;5008396;28;20435;-75
2022/07/23 05:58:03;;;;;;;127.32;115.40;;;14.70;97.50;;;;;;4994303;28;20051;-76
2022/07/23 06:00:32;;;;;;;128.25;116.22;;;14.80;97.50;;;;;;4993374;28;20047;-75
2022/07/23 06:02:59;;;;;;;127.30;115.28;;;14.80;97.60;;;;;;4994686;28;20078;-74
2022/07/23 06:05:28;;;;;;;129.77;117.60;;;14.80;97.30;;;;;;4995214;28;20138;-75
2022/07/23 06:07:57;;;;;;;132.05;119.80;;;14.90;97.70;;;;;;4975707;28;20058;-75
2022/07/23 06:10:25;;;;;;;130.52;118.28;;;14.90;97.50;;;;;;4978112;28;20551;-75
2022/07/23 06:12:54;;;;;;;128.13;116.22;;;14.90;97.60;;;;;;4997457;28;20138;-75
2022/07/23 06:15:21;;;;;;;126.93;114.75;;;15.00;97.70;;;;;;4980678;28;20065;-74
2022/07/23 06:17:48;;;;;;;128.80;116.63;;;15.00;97.70;;;;;;4978138;28;20058;-74
2022/07/23 06:20:15;;;;;;;128.02;116.22;;;15.10;97.80;;;;;;4994563;28;20058;-74
2022/07/23 06:22:42;;;;;;;128.05;116.05;;;15.10;97.80;;;;;;4978179;28;20061;-74
2022/07/23 06:25:10;;;;;;;128.30;116.25;;;15.20;97.80;;;;;;4994882;28;20130;-74
2022/07/23 06:27:36;;;;;;;130.70;118.75;;;15.20;97.80;;;;;;4977840;28;20079;-75
2022/07/23 06:30:08;;;;;;;128.40;116.68;;;15.30;97.60;;;;;;5006240;28;20043;-74
2022/07/23 06:32:35;;;;;;;127.68;116.00;;;15.30;97.80;;;;;;5005041;28;20145;-73
2022/07/23 06:35:02;;;;;;;128.05;116.18;;;15.40;97.80;;;;;;4983669;28;20487;-73
2022/07/23 06:37:29;;;;;;;127.60;115.65;;;15.40;97.70;;;;;;5003213;28;20109;-74
2022/07/23 06:39:55;;;;;;;127.97;116.13;;;15.50;97.60;;;;;;5002528;28;20145;-73
2022/07/23 06:42:22;;;;;;;128.68;116.65;;;15.50;97.60;;;;;;4990577;28;20046;-73
2022/07/23 06:44:57;;;;;;;128.27;116.38;;;15.50;97.60;;;;;;5010398;28;20126;-74
2022/07/23 06:47:25;;;;;;;126.55;114.82;;;15.60;97.50;;;;;;5002221;28;20059;-73
2022/07/23 06:49:52;;;;;;;129.00;117.03;;;15.60;97.50;;;;;;4977260;28;20081;-74
2022/07/23 06:52:19;;;;;;;128.02;116.38;;;15.70;97.50;;;;;;4994518;28;20082;-73
2022/07/23 06:54:47;;;;;;;126.68;114.90;;;15.70;97.60;;;;;;4995136;28;20066;-74
2022/07/23 06:57:14;;;;;;;126.45;114.60;;;15.80;97.30;;;;;;4993535;28;20051;-74
2022/07/23 06:59:41;;;;;;;126.40;114.90;;;15.80;97.10;;;;;;4977984;28;20043;-74
2022/07/23 07:02:12;;;;;;;124.78;113.43;;;15.90;97.10;;;;;;4994533;28;20500;-74
2022/07/23 07:04:41;;;;;;;128.35;116.75;;;15.90;97.00;;;;;;4976858;28;20087;-74
2022/07/23 07:07:08;;;;;;;128.13;116.75;;;16.00;96.90;;;;;;4976254;28;20472;-74
2022/07/23 07:09:35;;;;;;;126.43;114.93;;;16.10;96.90;;;;;;4994466;28;20142;-74
2022/07/23 07:12:02;;;;;;;127.15;115.55;;;16.10;97.00;;;;;;4993619;28;20061;-74
2022/07/23 07:14:29;;;;;;;130.07;118.32;;;16.10;96.90;;;;;;4993312;28;20058;-73
2022/07/23 07:16:56;;;;;;;128.40;116.78;;;16.20;96.90;;;;;;4994753;28;20583;-74
2022/07/23 07:19:23;;;;;;;126.78;115.40;;;16.20;97.10;;;;;;4994732;28;20070;-74
2022/07/23 07:21:51;;;;;;;128.65;117.15;;;16.30;97.10;;;;;;4995349;28;20117;-74
2022/07/23 07:24:18;;;;;;;128.73;117.13;;;16.40;97.00;;;;;;4997102;28;20050;-74
2022/07/23 07:26:45;;;;;;;126.38;114.97;;;16.40;96.80;;;;;;4993173;28;20050;-75
2022/07/23 07:29:12;;;;;;;126.75;115.10;;;16.40;96.80;;;;;;4994326;28;20420;-75
2022/07/23 07:31:39;;;;;;;126.95;115.57;;;16.50;96.90;;;;;;4993796;28;20074;-75
2022/07/23 07:34:06;;;;;;;127.20;116.00;;;16.50;96.80;;;;;;4977010;28;20046;-79
2022/07/23 07:36:33;;;;;;;126.07;114.78;;;16.60;96.70;;;;;;4993995;28;20142;-75
2022/07/23 07:39:01;;;;;;;127.78;116.50;;;16.60;96.70;;;;;;4994191;28;20051;-78
2022/07/23 07:41:28;;;;;;;127.38;116.18;;;16.70;96.60;;;;;;4995373;28;20058;-77
2022/07/23 07:43:55;;;;;;;128.32;116.93;;;16.70;96.30;;;;;;4977579;28;20055;-81
2022/07/23 07:46:23;;;;;;;129.32;118.03;;;16.80;96.30;;;;;;4977682;28;20571;-78
2022/07/23 07:48:51;;;;;;;129.48;118.22;;;16.80;96.40;;;;;;4995168;28;20074;-77
2022/07/23 07:51:18;;;;;;;127.40;116.00;;;16.90;96.30;;;;;;4994066;28;20057;-89
2022/07/23 07:53:45;;;;;;;125.47;114.35;;;16.90;96.20;;;;;;4977483;28;20051;-78
2022/07/23 07:56:13;;;;;;;126.25;115.05;;;17.00;95.90;;;;;;4993792;28;20101;-75
2022/07/23 07:58:40;;;;;;;127.20;115.75;;;17.00;95.80;;;;;;4993731;28;20147;-76
2022/07/23 08:01:07;;;;;;;131.13;119.43;;;17.10;95.80;;;;;;4993890;28;20051;-79
2022/07/23 08:03:35;;;;;;;128.77;117.30;;;17.10;95.70;;;;;;4993551;28;20615;-78
2022/07/23 08:06:02;;;;;;;131.63;120.43;;;17.20;95.70;;;;;;4977627;28;20606;-77
2022/07/23 08:08:29;;;;;;;131.68;120.40;;;17.20;95.70;;;;;;5012603;28;20047;-74
2022/07/23 08:10:56;;;;;;;129.15;117.95;;;17.20;95.70;;;;;;5013236;28;20146;-76
2022/07/23 08:13:24;;;;;;;129.25;118.05;;;17.30;95.60;;;;;;4996789;28;20957;-76
2022/07/23 08:15:52;;;;;;;128.73;117.43;;;17.40;95.00;;;;;;5007788;28;20058;-77
2022/07/23 08:18:20;;;;;;;129.98;118.57;;;17.40;94.70;;;;;;4999644;28;20121;-78
2022/07/23 08:20:47;;;;;;;131.20;119.70;;;17.40;94.50;;;;;;4998726;28;20054;-80
2022/07/23 08:23:14;;;;;;;127.72;116.57;;;17.50;94.60;;;;;;4995403;28;20059;-78
2022/07/23 08:25:42;;;;;;;131.55;120.28;;;17.50;94.70;;;;;;5002780;28;20121;-79
2022/07/23 08:28:11;;;;;;;133.75;122.55;;;17.60;94.30;;;;;;4994462;28;20051;-79
2022/07/23 08:30:41;;;;;;;135.05;123.75;;;17.60;94.00;;;;;;5005475;28;20051;-79
2022/07/23 08:33:12;;;;;;;132.77;121.57;;;17.60;93.70;;;;;;4992768;28;20126;-77
2022/07/23 08:35:41;;;;;;;132.40;121.20;;;17.60;93.60;;;;;;4993877;28;20050;-76
2022/07/23 08:38:20;;;;;;;132.57;121.57;;;17.70;93.70;;;;;;5150572;27;20113;-78
2022/07/23 08:40:49;;;;;;;129.55;118.55;;;17.70;93.60;;;;;;5156015;27;20554;-77
2022/07/23 08:43:18;;;;;;;130.68;119.63;;;17.80;93.60;;;;;;5151592;27;20136;-79
2022/07/23 08:45:47;;;;;;;132.38;120.95;;;17.80;93.60;;;;;;5149700;27;20073;-80
2022/07/23 08:48:16;;;;;;;128.30;117.25;;;17.80;93.30;;;;;;5150144;27;20039;-82
2022/07/23 08:50:44;;;;;;;131.23;120.20;;;17.90;93.00;;;;;;5150513;27;20105;-80
2022/07/23 08:53:12;;;;;;;131.20;120.20;;;17.90;92.80;;;;;;5151859;27;20059;-85
2022/07/23 08:55:41;;;;;;;131.00;120.00;;;17.90;92.70;;;;;;5151343;27;20049;-81
2022/07/23 08:58:08;;;;;;;131.48;120.47;;;18.00;93.00;;;;;;5151035;27;20055;-88
2022/07/23 09:00:35;;;;;;;130.18;119.15;;;18.00;92.90;;;;;;5134475;27;20135;-84
2022/07/23 09:03:03;;;;;;;132.85;121.90;;;18.10;92.90;;;;;;5132375;27;20055;-77
2022/07/23 09:05:30;;;;;;;133.95;122.93;;;18.10;92.50;;;;;;5149476;27;20142;-76
2022/07/23 09:08:08;;;;;;;133.07;122.07;;;18.10;92.50;;;;;;5150393;27;20044;-76
2022/07/23 09:10:50;;;;;;;130.90;119.97;;;18.20;92.60;;;;;;5151473;27;20120;-77
2022/07/23 09:13:29;;;;;;;130.45;119.38;;;18.20;91.90;;;;;;5143700;27;20130;-77
2022/07/23 09:15:59;;;;;;;128.93;117.88;;;18.20;91.30;;;;;;5160354;27;20136;-75
2022/07/23 09:18:44;;;;;;;128.80;118.10;;;18.30;91.40;;;;;;5146242;27;20055;-80
2022/07/23 09:21:17;;;;;;;130.55;119.75;;;18.30;91.20;;;;;;5145750;27;20075;-82
2022/07/23 09:23:46;;;;;;;131.57;120.88;;;18.40;91.20;;;;;;5111778;27;20051;-83
2022/07/23 09:26:31;;;;;;;129.45;118.32;;;18.40;90.70;;;;;;5129131;27;20575;-80
2022/07/23 09:29:04;;;;;;;128.73;117.72;;;18.40;90.90;;;;;;5147823;27;20562;-74
2022/07/23 09:31:44;;;;;;;129.93;119.00;;;18.40;91.10;;;;;;5149279;27;20055;-77
2022/07/23 09:34:13;;;;;;;131.38;120.38;;;18.50;90.80;;;;;;5150448;27;20096;-72
2022/07/23 09:36:41;;;;;;;131.35;120.45;;;18.50;90.30;;;;;;5149231;27;20087;-71
2022/07/23 09:39:08;;;;;;;131.95;121.05;;;18.60;90.40;;;;;;5148760;27;20074;-72
2022/07/23 09:41:40;;;;;;;131.20;120.15;;;18.60;90.10;;;;;;5150550;27;20052;-75
2022/07/23 09:44:12;;;;;;;127.30;116.60;;;18.70;90.20;;;;;;5149110;27;20056;-78
2022/07/23 09:46:40;;;;;;;129.10;118.40;;;18.70;89.20;;;;;;5150324;27;20048;-83
2022/07/23 09:49:14;;;;;;;128.70;117.90;;;18.70;89.40;;;;;;5120405;27;20521;-84
2022/07/23 09:51:50;;;;;;;129.77;119.00;;;18.70;88.70;;;;;;5117193;27;20105;-80
2022/07/23 09:54:27;;;;;;;133.63;122.35;;;18.80;88.50;;;;;;5135384;27;20071;-80
2022/07/23 09:56:57;;;;;;;129.82;118.97;;;18.80;89.50;;;;;;5116248;27;21034;-84
2022/07/23 09:59:26;;;;;;;130.82;119.93;;;18.80;89.20;;;;;;5133177;27;20043;-83
2022/07/23 10:01:56;;;;;;;133.70;122.57;;;18.80;88.30;;;;;;5133026;27;20048;-74
2022/07/23 10:04:24;;;;;;;135.90;124.72;;;18.90;88.80;;;;;;5132981;27;20058;-74
2022/07/23 10:07:10;;;;;;;131.38;120.38;;;18.90;88.90;;;;;;5133119;27;20051;-76
2022/07/23 10:09:58;;;;;;;132.57;121.88;;;19.00;88.90;;;;;;5134633;27;20051;-74
2022/07/23 10:15:31;;;;;;;132.30;121.38;;;19.00;87.70;;;;;;5085656;27;20093;-76
2022/07/23 10:17:58;;;;;;;129.48;118.57;;;19.10;88.00;;;;;;5138671;27;20047;-75
2022/07/23 10:20:25;;;;;;;133.77;122.78;;;19.10;88.50;;;;;;5145252;27;20075;-74
2022/07/23 10:23:02;;;;;;;137.20;126.15;;;19.20;87.50;;;;;;5148749;27;20065;-73
2022/07/23 10:25:37;;;;;;;137.07;126.07;;;19.20;88.10;;;;;;5144439;27;20041;-76
2022/07/23 10:28:49;;;;;;;132.05;121.15;;;19.30;87.60;;;;;;5143772;27;20140;-76
2022/07/23 10:31:32;;;;;;;133.35;122.55;;;19.40;86.90;;;;;;5093412;27;20050;-75
2022/07/23 10:34:07;;;;;;;130.23;119.22;;;19.40;87.60;;;;;;5144698;27;20130;-78
2022/07/23 10:36:45;;;;;;;130.40;119.50;;;19.40;87.90;;;;;;5149642;27;20058;-76
2022/07/23 10:39:18;;;;;;;132.25;121.30;;;19.50;87.00;;;;;;5142808;27;20043;-76
2022/07/23 10:41:48;;;;;;;141.68;130.07;;;19.50;86.30;;;;;;5143118;27;20062;-76
2022/07/23 10:44:17;;;;;;;145.55;133.52;;;19.50;86.50;;;;;;5160010;22;21132;-78
2022/07/23 10:49:39;;;;;;;135.77;124.85;;;19.60;86.90;;;;;;5091457;28;20040;-78
2022/07/23 10:52:23;;;;;;;136.15;125.28;;;19.70;86.90;;;;;;5093917;28;20052;-78
2022/07/23 10:54:51;;;;;;;133.07;122.07;;;19.70;86.20;;;;;;5094455;28;20053;-75
2022/07/23 10:57:21;;;;;;;140.80;129.80;;;19.80;86.60;;;;;;5093479;28;20536;-77
2022/07/23 11:00:16;;;;;;;138.23;127.32;;;19.90;85.20;;;;;;5090411;28;20068;-73
2022/07/23 11:02:46;;;;;;;137.00;125.93;;;19.90;84.50;;;;;;5092215;28;20047;-74
2022/07/23 11:05:14;;;;;;;136.98;126.07;;;19.90;83.40;;;;;;5092706;28;20048;-75
2022/07/23 11:08:24;;;;;;;136.95;126.05;;;19.90;83.90;;;;;;5092197;28;20048;-72
2022/07/23 11:11:08;;;;;;;130.95;119.85;;;20.00;83.70;;;;;;5091609;28;20895;-72
2022/07/23 11:13:49;;;;;;;133.57;122.57;;;20.00;84.30;;;;;;5091545;28;20049;-72
2022/07/23 11:16:21;;;;;;;134.23;123.22;;;20.10;83.80;;;;;;5092656;28;20052;-74
2022/07/23 11:19:04;;;;;;;138.27;127.35;;;20.10;84.40;;;;;;5091060;28;20059;-73
2022/07/23 11:21:51;;;;;;;135.40;124.50;;;20.10;83.80;;;;;;5090840;28;20041;-73
2022/07/23 11:24:20;;;;;;;134.70;123.60;;;20.20;83.70;;;;;;5093786;28;20058;-72
2022/07/23 11:26:51;;;;;;;135.48;124.40;;;20.20;83.50;;;;;;5094337;28;20060;-73
2022/07/23 11:29:40;;;;;;;135.38;124.50;;;20.30;83.70;;;;;;5094358;28;20607;-72
2022/07/23 11:32:09;;;;;;;136.15;125.35;;;20.30;84.20;;;;;;5076364;28;20574;-72
2022/07/23 11:34:41;;;;;;;137.38;126.65;;;20.30;83.60;;;;;;5076276;28;20155;-74
2022/07/23 11:37:10;;;;;;;138.18;127.20;;;20.40;84.00;;;;;;5092542;28;20060;-73
2022/07/23 11:39:38;;;;;;;135.10;124.00;;;20.50;83.60;;;;;;5092960;28;20569;-75
2022/07/23 11:42:07;;;;;;;138.20;127.40;;;20.50;82.70;;;;;;5092738;28;20047;-73
2022/07/23 11:44:37;;;;;;;138.45;127.75;;;20.60;82.90;;;;;;5092644;28;20131;-75
2022/07/23 11:47:06;;;;;;;141.95;131.02;;;20.60;83.30;;;;;;5092539;28;20052;-74
2022/07/23 11:49:34;;;;;;;138.43;127.53;;;20.60;83.20;;;;;;5091782;28;20056;-75
2022/07/23 11:52:08;;;;;;;134.98;123.97;;;20.60;82.80;;;;;;5092602;28;20415;-75
2022/07/23 11:54:37;;;;;;;134.75;123.75;;;20.70;82.90;;;;;;5074914;28;20041;-75
2022/07/23 11:57:04;;;;;;;138.05;127.10;;;20.70;82.60;;;;;;5091514;28;20143;-72
2022/07/23 11:59:33;;;;;;;135.75;124.65;;;20.80;82.80;;;;;;5091973;28;20147;-72
2022/07/23 12:02:01;;;;;;;135.00;123.97;;;20.80;82.90;;;;;;5089746;28;20043;-72
2022/07/23 12:04:39;;;;;;;138.80;127.80;;;20.90;83.10;;;;;;5073044;28;20143;-72
2022/07/23 12:07:24;;;;;;;142.98;131.93;;;20.90;83.40;;;;;;5089566;28;20068;-72
2022/07/23 12:09:51;;;;;;;145.27;134.27;;;21.00;83.30;;;;;;5090083;28;20068;-73
2022/07/23 12:12:18;;;;;;;135.60;124.82;;;20.90;82.20;;;;;;5090309;28;20047;-72
2022/07/23 12:14:49;;;;;;;139.55;128.85;;;21.00;82.70;;;;;;5091630;28;20867;-76
2022/07/23 12:17:17;;;;;;;139.07;128.15;;;21.00;82.20;;;;;;5089564;28;20075;-75
2022/07/23 12:20:04;;;;;;;140.77;130.00;;;21.00;82.20;;;;;;5091935;28;20572;-72
2022/07/23 12:22:37;;;;;;;137.13;126.32;;;21.00;81.50;;;;;;5092963;28;20542;-73
2022/07/23 12:25:07;;;;;;;139.55;128.68;;;21.10;81.10;;;;;;5092771;28;20045;-73
2022/07/23 12:27:34;;;;;;;139.20;128.32;;;21.00;82.00;;;;;;5092337;28;20052;-72
2022/07/23 12:30:17;;;;;;;142.77;131.88;;;21.10;82.00;;;;;;5091376;28;20056;-73